Airfield :
LOGIN :

Register | Disclaimer

   EN    FR    IT 

 










Legend :    VFR   Marginal VFR   IFR   Intensive IFR   Very Intensive IFR
Visi :
Ceiling :
>= 8 km
>= 3000ft
5 to 8 km
1000 to 3000 ft
1500m to 5 km
500 to 1000 ft
800 to 1500m
200 to 500 ft
< 800m
< 200 ft
Symbols :   Thunderstorms  Fog  Heavy snow  Heavy precipitations  Wind > 20 kt
SIGMETs :     Misc.  Thunderstorms  Icing  Turbulence  Mountain Waves  Volcanic Ashes






- Airport Elevation : 597 ft


ESPE - Vidsel Air Base

CURRENT METAR :
  • 162350Z AUTO 15003KT 9999 FEW015/// SCT027/// BKN060/// 11/11 Q1014

EXPIRED METARs :
  • 162320Z AUTO 12005KT 9999 FEW015/// BKN028/// 12/12 Q1014
  • 162250Z AUTO 13004KT 9999 FEW015/// OVC023/// 12/12 Q1014
  • 162220Z AUTO 11004KT 9999 BKN006/// OVC017/// 12/12 Q1014
  • 162150Z AUTO 10003KT 9999 OVC005/// 12/12 Q1014
  • 162120Z AUTO 13003KT 8000 OVC005/// 12/12 Q1014
  • 162050Z AUTO 14004KT 7000 OVC006/// 12/11 Q1014
  • 162020Z AUTO 11004KT 6000 OVC007/// 12/11 Q1014
  • 161950Z AUTO 11006KT 5000 -DZ OVC007/// 12/11 Q1014
  • 161920Z AUTO 11006KT 4300 -DZ BR BKN006/// OVC010/// 12/11 Q1013
  • 161850Z AUTO 12005KT 090V150 9999 -SHRA BKN008/// OVC023/// 12/11 Q1013

Expired Forecast.



MET'MAP, your aeronautical weather chart ! - Copyright ORBIFLY December 2007 - Disclaimer

ORBIFLY MET'MAP TEAM :

Programming & Development : Alexandra Zaïnal
Original concept : Baudouin d'Aumeries
Technical & hardware support : Manuel Goepfert
Assistance : Marc-Olivier Méhu




SOURCES & CREDITS :

   NOAA